sensor_id;sensor_type;location;lat;lon;timestamp;P1;durP1;ratioP1;P2;durP2;ratioP2
42616;SDS011;28250;52.320;0.360;2023-08-08T00:01:38;3.42;;;2.15;;
42616;SDS011;28250;52.320;0.360;2023-08-08T00:04:10;5.03;;;2.03;;
42616;SDS011;28250;52.320;0.360;2023-08-08T00:06:36;4.05;;;2.20;;
42616;SDS011;28250;52.320;0.360;2023-08-08T00:09:03;4.28;;;1.98;;
42616;SDS011;28250;52.320;0.360;2023-08-08T00:11:30;4.32;;;1.75;;
42616;SDS011;28250;52.320;0.360;2023-08-08T00:13:57;4.28;;;1.88;;
42616;SDS011;28250;52.320;0.360;2023-08-08T00:16:23;3.23;;;1.97;;
42616;SDS011;28250;52.320;0.360;2023-08-08T00:18:50;6.72;;;1.90;;
42616;SDS011;28250;52.320;0.360;2023-08-08T00:21:19;5.03;;;2.00;;
42616;SDS011;28250;52.320;0.360;2023-08-08T00:23:46;4.95;;;1.70;;
42616;SDS011;28250;52.320;0.360;2023-08-08T00:26:12;4.07;;;1.83;;
42616;SDS011;28250;52.320;0.360;2023-08-08T00:28:38;4.32;;;1.40;;
42616;SDS011;28250;52.320;0.360;2023-08-08T00:31:04;3.38;;;1.63;;
42616;SDS011;28250;52.320;0.360;2023-08-08T00:33:30;3.60;;;1.67;;
42616;SDS011;28250;52.320;0.360;2023-08-08T00:35:56;4.90;;;2.00;;
42616;SDS011;28250;52.320;0.360;2023-08-08T00:38:32;4.89;;;1.85;;
42616;SDS011;28250;52.320;0.360;2023-08-08T00:40:58;4.30;;;2.05;;
42616;SDS011;28250;52.320;0.360;2023-08-08T00:43:24;3.30;;;1.77;;
42616;SDS011;28250;52.320;0.360;2023-08-08T00:45:50;5.53;;;2.30;;
42616;SDS011;28250;52.320;0.360;2023-08-08T00:48:17;5.73;;;2.20;;
42616;SDS011;28250;52.320;0.360;2023-08-08T00:50:44;3.22;;;1.80;;
42616;SDS011;28250;52.320;0.360;2023-08-08T00:53:13;5.82;;;1.70;;
42616;SDS011;28250;52.320;0.360;2023-08-08T00:55:41;4.15;;;1.75;;
42616;SDS011;28250;52.320;0.360;2023-08-08T00:58:07;4.05;;;2.03;;
42616;SDS011;28250;52.320;0.360;2023-08-08T01:00:33;2.80;;;1.85;;
42616;SDS011;28250;52.320;0.360;2023-08-08T01:03:00;3.80;;;1.80;;
42616;SDS011;28250;52.320;0.360;2023-08-08T01:05:25;5.97;;;1.75;;
42616;SDS011;28250;52.320;0.360;2023-08-08T01:08:05;3.88;;;1.20;;
42616;SDS011;28250;52.320;0.360;2023-08-08T01:10:33;1.77;;;1.17;;
42616;SDS011;28250;52.320;0.360;2023-08-08T01:13:08;4.15;;;1.40;;
42616;SDS011;28250;52.320;0.360;2023-08-08T01:15:40;3.03;;;1.27;;
42616;SDS011;28250;52.320;0.360;2023-08-08T01:18:07;2.28;;;1.30;;
42616;SDS011;28250;52.320;0.360;2023-08-08T01:20:35;4.07;;;1.25;;
42616;SDS011;28250;52.320;0.360;2023-08-08T01:25:37;5.10;;;1.20;;
42616;SDS011;28250;52.320;0.360;2023-08-08T01:28:05;1.85;;;1.30;;
42616;SDS011;28250;52.320;0.360;2023-08-08T01:30:32;1.50;;;1.30;;
42616;SDS011;28250;52.320;0.360;2023-08-08T01:33:01;1.35;;;1.25;;
42616;SDS011;28250;52.320;0.360;2023-08-08T01:35:30;2.75;;;0.93;;
42616;SDS011;28250;52.320;0.360;2023-08-08T01:38:17;2.20;;;1.20;;
42616;SDS011;28250;52.320;0.360;2023-08-08T01:40:52;1.73;;;1.30;;
42616;SDS011;28250;52.320;0.360;2023-08-08T01:43:22;2.20;;;1.40;;
42616;SDS011;28250;52.320;0.360;2023-08-08T01:48:16;2.42;;;1.15;;
42616;SDS011;28250;52.320;0.360;2023-08-08T01:50:42;2.38;;;1.02;;
42616;SDS011;28250;52.320;0.360;2023-08-08T01:53:08;1.40;;;1.05;;
42616;SDS011;28250;52.320;0.360;2023-08-08T01:55:34;2.35;;;0.95;;
42616;SDS011;28250;52.320;0.360;2023-08-08T01:58:01;3.88;;;1.27;;
42616;SDS011;28250;52.320;0.360;2023-08-08T02:00:26;2.75;;;1.15;;
42616;SDS011;28250;52.320;0.360;2023-08-08T02:02:53;3.30;;;1.30;;
42616;SDS011;28250;52.320;0.360;2023-08-08T02:05:19;3.03;;;1.10;;
42616;SDS011;28250;52.320;0.360;2023-08-08T02:07:45;1.45;;;1.20;;
42616;SDS011;28250;52.320;0.360;2023-08-08T02:10:11;3.90;;;1.08;;
42616;SDS011;28250;52.320;0.360;2023-08-08T02:12:38;2.80;;;1.35;;
42616;SDS011;28250;52.320;0.360;2023-08-08T02:15:04;1.42;;;1.23;;
42616;SDS011;28250;52.320;0.360;2023-08-08T02:17:31;1.27;;;1.00;;
42616;SDS011;28250;52.320;0.360;2023-08-08T02:19:57;3.38;;;1.00;;
42616;SDS011;28250;52.320;0.360;2023-08-08T02:22:23;1.45;;;1.00;;
42616;SDS011;28250;52.320;0.360;2023-08-08T02:24:50;2.85;;;1.15;;
42616;SDS011;28250;52.320;0.360;2023-08-08T02:27:17;0.98;;;0.80;;
42616;SDS011;28250;52.320;0.360;2023-08-08T02:29:43;3.85;;;1.30;;
42616;SDS011;28250;52.320;0.360;2023-08-08T02:32:09;2.38;;;1.25;;
42616;SDS011;28250;52.320;0.360;2023-08-08T02:34:35;1.98;;;0.90;;
42616;SDS011;28250;52.320;0.360;2023-08-08T02:37:01;1.25;;;1.15;;
42616;SDS011;28250;52.320;0.360;2023-08-08T02:39:27;4.85;;;0.88;;
42616;SDS011;28250;52.320;0.360;2023-08-08T02:41:53;3.60;;;1.10;;
42616;SDS011;28250;52.320;0.360;2023-08-08T02:44:20;3.73;;;1.10;;
42616;SDS011;28250;52.320;0.360;2023-08-08T02:46:48;1.52;;;1.10;;
42616;SDS011;28250;52.320;0.360;2023-08-08T02:49:14;2.85;;;0.90;;
42616;SDS011;28250;52.320;0.360;2023-08-08T02:51:40;4.22;;;1.20;;
42616;SDS011;28250;52.320;0.360;2023-08-08T02:54:06;3.53;;;1.67;;
42616;SDS011;28250;52.320;0.360;2023-08-08T02:59:00;1.90;;;1.23;;
42616;SDS011;28250;52.320;0.360;2023-08-08T03:01:26;2.47;;;1.17;;
42616;SDS011;28250;52.320;0.360;2023-08-08T03:03:53;2.97;;;1.00;;
42616;SDS011;28250;52.320;0.360;2023-08-08T03:06:21;4.18;;;1.17;;
42616;SDS011;28250;52.320;0.360;2023-08-08T03:08:47;2.55;;;1.27;;
42616;SDS011;28250;52.320;0.360;2023-08-08T03:11:14;2.50;;;1.10;;
42616;SDS011;28250;52.320;0.360;2023-08-08T03:13:46;1.63;;;1.00;;
42616;SDS011;28250;52.320;0.360;2023-08-08T03:16:12;1.48;;;1.00;;
42616;SDS011;28250;52.320;0.360;2023-08-08T03:18:38;1.65;;;1.15;;
42616;SDS011;28250;52.320;0.360;2023-08-08T03:21:05;1.50;;;1.10;;
42616;SDS011;28250;52.320;0.360;2023-08-08T03:23:33;1.13;;;1.00;;
42616;SDS011;28250;52.320;0.360;2023-08-08T03:25:59;3.67;;;1.23;;
42616;SDS011;28250;52.320;0.360;2023-08-08T03:28:25;3.13;;;1.15;;
42616;SDS011;28250;52.320;0.360;2023-08-08T03:30:53;3.20;;;1.20;;
42616;SDS011;28250;52.320;0.360;2023-08-08T03:33:21;3.53;;;1.13;;
42616;SDS011;28250;52.320;0.360;2023-08-08T03:35:47;3.15;;;1.13;;
42616;SDS011;28250;52.320;0.360;2023-08-08T03:38:14;2.30;;;1.20;;
42616;SDS011;28250;52.320;0.360;2023-08-08T03:40:40;2.50;;;1.27;;
42616;SDS011;28250;52.320;0.360;2023-08-08T03:43:06;1.47;;;1.30;;
42616;SDS011;28250;52.320;0.360;2023-08-08T03:45:32;2.55;;;1.50;;
42616;SDS011;28250;52.320;0.360;2023-08-08T03:47:59;10.60;;;1.70;;
42616;SDS011;28250;52.320;0.360;2023-08-08T03:50:24;3.05;;;1.38;;
42616;SDS011;28250;52.320;0.360;2023-08-08T03:52:50;4.35;;;1.27;;
42616;SDS011;28250;52.320;0.360;2023-08-08T03:57:44;1.80;;;1.35;;
42616;SDS011;28250;52.320;0.360;2023-08-08T04:00:11;1.95;;;1.30;;
42616;SDS011;28250;52.320;0.360;2023-08-08T04:02:40;2.03;;;1.10;;
42616;SDS011;28250;52.320;0.360;2023-08-08T04:05:06;1.83;;;1.02;;
42616;SDS011;28250;52.320;0.360;2023-08-08T04:07:33;2.83;;;1.33;;
42616;SDS011;28250;52.320;0.360;2023-08-08T04:10:00;4.47;;;1.50;;
42616;SDS011;28250;52.320;0.360;2023-08-08T04:12:29;4.45;;;2.10;;
42616;SDS011;28250;52.320;0.360;2023-08-08T04:14:55;3.13;;;1.00;;
42616;SDS011;28250;52.320;0.360;2023-08-08T04:17:21;5.68;;;1.40;;
42616;SDS011;28250;52.320;0.360;2023-08-08T04:19:47;6.18;;;1.30;;
42616;SDS011;28250;52.320;0.360;2023-08-08T04:22:13;7.28;;;1.90;;
42616;SDS011;28250;52.320;0.360;2023-08-08T04:24:40;3.60;;;1.10;;
42616;SDS011;28250;52.320;0.360;2023-08-08T04:27:06;4.75;;;1.50;;
42616;SDS011;28250;52.320;0.360;2023-08-08T04:29:32;2.05;;;1.10;;
42616;SDS011;28250;52.320;0.360;2023-08-08T04:31:58;2.75;;;1.27;;
42616;SDS011;28250;52.320;0.360;2023-08-08T04:34:25;1.77;;;1.10;;
42616;SDS011;28250;52.320;0.360;2023-08-08T04:36:51;3.25;;;1.00;;
42616;SDS011;28250;52.320;0.360;2023-08-08T04:39:17;1.10;;;0.90;;
42616;SDS011;28250;52.320;0.360;2023-08-08T04:41:43;5.13;;;1.10;;
42616;SDS011;28250;52.320;0.360;2023-08-08T04:44:09;1.83;;;1.10;;
42616;SDS011;28250;52.320;0.360;2023-08-08T04:46:34;3.75;;;1.30;;
42616;SDS011;28250;52.320;0.360;2023-08-08T04:49:00;1.50;;;1.17;;
42616;SDS011;28250;52.320;0.360;2023-08-08T04:51:26;3.03;;;1.27;;
42616;SDS011;28250;52.320;0.360;2023-08-08T04:53:52;1.77;;;1.00;;
42616;SDS011;28250;52.320;0.360;2023-08-08T04:56:18;2.75;;;1.25;;
42616;SDS011;28250;52.320;0.360;2023-08-08T04:58:44;4.47;;;1.15;;
42616;SDS011;28250;52.320;0.360;2023-08-08T05:01:10;2.22;;;0.95;;
42616;SDS011;28250;52.320;0.360;2023-08-08T05:03:39;4.13;;;1.20;;
42616;SDS011;28250;52.320;0.360;2023-08-08T05:06:05;3.45;;;1.08;;
42616;SDS011;28250;52.320;0.360;2023-08-08T05:08:31;3.03;;;1.17;;
42616;SDS011;28250;52.320;0.360;2023-08-08T05:10:57;1.55;;;1.15;;
42616;SDS011;28250;52.320;0.360;2023-08-08T05:13:23;4.13;;;1.10;;
42616;SDS011;28250;52.320;0.360;2023-08-08T05:15:49;1.30;;;1.10;;
42616;SDS011;28250;52.320;0.360;2023-08-08T05:18:15;1.48;;;0.90;;
42616;SDS011;28250;52.320;0.360;2023-08-08T05:20:41;3.53;;;1.10;;
42616;SDS011;28250;52.320;0.360;2023-08-08T05:23:07;2.35;;;1.10;;
42616;SDS011;28250;52.320;0.360;2023-08-08T05:25:33;2.88;;;1.27;;
42616;SDS011;28250;52.320;0.360;2023-08-08T05:27:59;2.38;;;1.05;;
42616;SDS011;28250;52.320;0.360;2023-08-08T05:30:25;2.65;;;1.40;;
42616;SDS011;28250;52.320;0.360;2023-08-08T05:32:51;1.70;;;0.95;;
42616;SDS011;28250;52.320;0.360;2023-08-08T05:35:17;3.95;;;1.15;;
42616;SDS011;28250;52.320;0.360;2023-08-08T05:37:43;4.82;;;1.10;;
42616;SDS011;28250;52.320;0.360;2023-08-08T05:40:09;1.98;;;1.08;;
42616;SDS011;28250;52.320;0.360;2023-08-08T05:42:37;1.73;;;0.93;;
42616;SDS011;28250;52.320;0.360;2023-08-08T05:45:04;4.63;;;1.23;;
42616;SDS011;28250;52.320;0.360;2023-08-08T05:47:31;7.13;;;1.15;;
42616;SDS011;28250;52.320;0.360;2023-08-08T05:49:57;3.75;;;1.20;;
42616;SDS011;28250;52.320;0.360;2023-08-08T05:52:23;1.90;;;1.15;;
42616;SDS011;28250;52.320;0.360;2023-08-08T05:54:49;3.97;;;1.17;;
42616;SDS011;28250;52.320;0.360;2023-08-08T05:57:15;4.00;;;1.30;;
42616;SDS011;28250;52.320;0.360;2023-08-08T05:59:41;1.50;;;1.13;;
42616;SDS011;28250;52.320;0.360;2023-08-08T06:02:10;1.27;;;1.00;;
42616;SDS011;28250;52.320;0.360;2023-08-08T06:04:36;2.05;;;1.13;;
42616;SDS011;28250;52.320;0.360;2023-08-08T06:07:02;2.08;;;1.00;;
42616;SDS011;28250;52.320;0.360;2023-08-08T06:09:28;1.35;;;0.98;;
42616;SDS011;28250;52.320;0.360;2023-08-08T06:11:54;3.50;;;1.48;;
42616;SDS011;28250;52.320;0.360;2023-08-08T06:14:20;4.30;;;1.48;;
42616;SDS011;28250;52.320;0.360;2023-08-08T06:16:46;2.55;;;1.17;;
42616;SDS011;28250;52.320;0.360;2023-08-08T06:19:12;5.78;;;1.42;;
42616;SDS011;28250;52.320;0.360;2023-08-08T06:21:40;1.63;;;1.10;;
42616;SDS011;28250;52.320;0.360;2023-08-08T06:24:06;2.45;;;1.13;;
42616;SDS011;28250;52.320;0.360;2023-08-08T06:26:33;1.10;;;0.88;;
42616;SDS011;28250;52.320;0.360;2023-08-08T06:28:59;2.20;;;1.17;;
42616;SDS011;28250;52.320;0.360;2023-08-08T06:31:25;1.77;;;1.13;;
42616;SDS011;28250;52.320;0.360;2023-08-08T06:33:51;3.38;;;1.20;;
42616;SDS011;28250;52.320;0.360;2023-08-08T06:36:17;1.40;;;0.90;;
42616;SDS011;28250;52.320;0.360;2023-08-08T06:38:43;2.60;;;1.00;;
42616;SDS011;28250;52.320;0.360;2023-08-08T06:41:09;2.55;;;1.33;;
42616;SDS011;28250;52.320;0.360;2023-08-08T06:43:35;1.02;;;0.70;;
42616;SDS011;28250;52.320;0.360;2023-08-08T06:46:01;1.35;;;1.00;;
42616;SDS011;28250;52.320;0.360;2023-08-08T06:48:27;1.63;;;1.10;;
42616;SDS011;28250;52.320;0.360;2023-08-08T06:50:53;1.35;;;0.90;;
42616;SDS011;28250;52.320;0.360;2023-08-08T06:53:19;2.63;;;1.35;;
42616;SDS011;28250;52.320;0.360;2023-08-08T06:55:45;5.63;;;1.20;;
42616;SDS011;28250;52.320;0.360;2023-08-08T06:58:11;1.35;;;1.00;;
42616;SDS011;28250;52.320;0.360;2023-08-08T07:00:37;3.50;;;1.20;;
42616;SDS011;28250;52.320;0.360;2023-08-08T07:03:03;3.30;;;1.20;;
42616;SDS011;28250;52.320;0.360;2023-08-08T07:05:30;3.33;;;1.38;;
42616;SDS011;28250;52.320;0.360;2023-08-08T07:07:56;1.55;;;1.10;;
42616;SDS011;28250;52.320;0.360;2023-08-08T07:10:22;4.15;;;1.50;;
42616;SDS011;28250;52.320;0.360;2023-08-08T07:12:48;3.28;;;1.63;;
42616;SDS011;28250;52.320;0.360;2023-08-08T07:15:14;2.95;;;1.00;;
42616;SDS011;28250;52.320;0.360;2023-08-08T07:17:41;2.83;;;1.40;;
42616;SDS011;28250;52.320;0.360;2023-08-08T07:20:07;3.42;;;1.13;;
42616;SDS011;28250;52.320;0.360;2023-08-08T07:22:33;1.85;;;1.30;;
42616;SDS011;28250;52.320;0.360;2023-08-08T07:24:59;2.72;;;1.10;;
42616;SDS011;28250;52.320;0.360;2023-08-08T07:27:26;3.47;;;1.52;;
42616;SDS011;28250;52.320;0.360;2023-08-08T07:29:52;4.82;;;1.20;;
42616;SDS011;28250;52.320;0.360;2023-08-08T07:32:18;3.60;;;1.10;;
42616;SDS011;28250;52.320;0.360;2023-08-08T07:34:44;1.10;;;1.00;;
42616;SDS011;28250;52.320;0.360;2023-08-08T07:37:10;13.30;;;1.75;;
42616;SDS011;28250;52.320;0.360;2023-08-08T07:39:36;1.98;;;1.23;;
42616;SDS011;28250;52.320;0.360;2023-08-08T07:42:02;3.72;;;1.00;;
42616;SDS011;28250;52.320;0.360;2023-08-08T07:44:29;2.50;;;1.27;;
42616;SDS011;28250;52.320;0.360;2023-08-08T07:46:57;3.85;;;1.70;;
42616;SDS011;28250;52.320;0.360;2023-08-08T07:49:23;4.30;;;1.35;;
42616;SDS011;28250;52.320;0.360;2023-08-08T07:51:49;1.73;;;1.15;;
42616;SDS011;28250;52.320;0.360;2023-08-08T07:54:15;1.83;;;1.30;;
42616;SDS011;28250;52.320;0.360;2023-08-08T07:56:40;2.42;;;1.05;;
42616;SDS011;28250;52.320;0.360;2023-08-08T07:59:08;3.92;;;1.17;;
42616;SDS011;28250;52.320;0.360;2023-08-08T08:01:34;5.47;;;1.75;;
42616;SDS011;28250;52.320;0.360;2023-08-08T08:04:00;3.35;;;1.13;;
42616;SDS011;28250;52.320;0.360;2023-08-08T08:08:53;3.72;;;1.48;;
42616;SDS011;28250;52.320;0.360;2023-08-08T08:11:19;2.65;;;1.00;;
42616;SDS011;28250;52.320;0.360;2023-08-08T08:13:45;2.72;;;0.90;;
42616;SDS011;28250;52.320;0.360;2023-08-08T08:16:12;3.40;;;1.00;;
42616;SDS011;28250;52.320;0.360;2023-08-08T08:18:38;2.97;;;1.10;;
42616;SDS011;28250;52.320;0.360;2023-08-08T08:21:04;1.98;;;1.23;;
42616;SDS011;28250;52.320;0.360;2023-08-08T08:23:30;1.77;;;1.30;;
42616;SDS011;28250;52.320;0.360;2023-08-08T08:25:57;1.50;;;1.10;;
42616;SDS011;28250;52.320;0.360;2023-08-08T08:28:25;2.42;;;1.33;;
42616;SDS011;28250;52.320;0.360;2023-08-08T08:33:18;2.35;;;1.25;;
42616;SDS011;28250;52.320;0.360;2023-08-08T08:35:44;2.15;;;1.05;;
42616;SDS011;28250;52.320;0.360;2023-08-08T08:38:10;5.20;;;1.10;;
42616;SDS011;28250;52.320;0.360;2023-08-08T08:40:37;1.85;;;1.25;;
42616;SDS011;28250;52.320;0.360;2023-08-08T08:43:06;1.95;;;1.20;;
42616;SDS011;28250;52.320;0.360;2023-08-08T08:45:36;2.42;;;1.40;;
42616;SDS011;28250;52.320;0.360;2023-08-08T08:48:08;2.35;;;1.05;;
42616;SDS011;28250;52.320;0.360;2023-08-08T08:50:38;2.63;;;1.00;;
42616;SDS011;28250;52.320;0.360;2023-08-08T08:53:05;3.42;;;1.80;;
42616;SDS011;28250;52.320;0.360;2023-08-08T08:55:31;2.40;;;1.05;;
42616;SDS011;28250;52.320;0.360;2023-08-08T08:57:57;2.33;;;1.57;;
42616;SDS011;28250;52.320;0.360;2023-08-08T09:00:23;1.85;;;1.08;;
42616;SDS011;28250;52.320;0.360;2023-08-08T09:02:51;3.65;;;0.93;;
42616;SDS011;28250;52.320;0.360;2023-08-08T09:05:20;2.42;;;1.20;;
42616;SDS011;28250;52.320;0.360;2023-08-08T09:07:47;1.63;;;1.10;;
42616;SDS011;28250;52.320;0.360;2023-08-08T09:10:15;2.97;;;1.15;;
42616;SDS011;28250;52.320;0.360;2023-08-08T09:12:42;1.92;;;0.93;;
42616;SDS011;28250;52.320;0.360;2023-08-08T09:15:12;2.20;;;1.20;;
42616;SDS011;28250;52.320;0.360;2023-08-08T09:17:42;1.35;;;0.82;;
42616;SDS011;28250;52.320;0.360;2023-08-08T09:20:09;4.70;;;1.70;;
42616;SDS011;28250;52.320;0.360;2023-08-08T09:22:38;3.08;;;1.10;;
42616;SDS011;28250;52.320;0.360;2023-08-08T09:25:07;3.03;;;1.40;;
42616;SDS011;28250;52.320;0.360;2023-08-08T09:27:34;2.28;;;1.00;;
42616;SDS011;28250;52.320;0.360;2023-08-08T09:30:00;1.35;;;0.90;;
42616;SDS011;28250;52.320;0.360;2023-08-08T09:32:32;1.67;;;0.90;;
42616;SDS011;28250;52.320;0.360;2023-08-08T09:34:58;1.20;;;0.80;;
42616;SDS011;28250;52.320;0.360;2023-08-08T09:37:25;1.83;;;0.90;;
42616;SDS011;28250;52.320;0.360;2023-08-08T09:39:59;3.72;;;1.10;;
42616;SDS011;28250;52.320;0.360;2023-08-08T09:42:28;1.85;;;0.90;;
42616;SDS011;28250;52.320;0.360;2023-08-08T09:44:55;0.97;;;0.87;;
42616;SDS011;28250;52.320;0.360;2023-08-08T09:47:22;2.97;;;0.90;;
42616;SDS011;28250;52.320;0.360;2023-08-08T09:49:49;2.95;;;0.80;;
42616;SDS011;28250;52.320;0.360;2023-08-08T09:52:16;1.42;;;0.73;;
42616;SDS011;28250;52.320;0.360;2023-08-08T09:54:42;2.40;;;1.03;;
42616;SDS011;28250;52.320;0.360;2023-08-08T09:57:09;2.10;;;0.93;;
42616;SDS011;28250;52.320;0.360;2023-08-08T10:02:02;2.40;;;0.93;;
42616;SDS011;28250;52.320;0.360;2023-08-08T10:04:30;1.45;;;0.95;;
42616;SDS011;28250;52.320;0.360;2023-08-08T10:06:56;1.67;;;0.93;;
42616;SDS011;28250;52.320;0.360;2023-08-08T10:09:22;1.10;;;0.95;;
42616;SDS011;28250;52.320;0.360;2023-08-08T10:11:50;1.17;;;0.90;;
42616;SDS011;28250;52.320;0.360;2023-08-08T10:14:16;4.13;;;1.00;;
42616;SDS011;28250;52.320;0.360;2023-08-08T10:16:42;1.73;;;0.98;;
42616;SDS011;28250;52.320;0.360;2023-08-08T10:19:11;1.77;;;1.00;;
42616;SDS011;28250;52.320;0.360;2023-08-08T10:21:43;0.95;;;0.75;;
42616;SDS011;28250;52.320;0.360;2023-08-08T10:24:10;2.40;;;1.00;;
42616;SDS011;28250;52.320;0.360;2023-08-08T10:29:40;1.85;;;1.10;;
42616;SDS011;28250;52.320;0.360;2023-08-08T10:32:06;3.00;;;1.00;;
42616;SDS011;28250;52.320;0.360;2023-08-08T10:34:37;0.90;;;0.80;;
42616;SDS011;28250;52.320;0.360;2023-08-08T10:37:17;3.35;;;0.70;;
42616;SDS011;28250;52.320;0.360;2023-08-08T10:39:53;3.03;;;1.00;;
42616;SDS011;28250;52.320;0.360;2023-08-08T10:42:24;1.00;;;0.88;;
42616;SDS011;28250;52.320;0.360;2023-08-08T10:44:53;2.03;;;1.00;;
42616;SDS011;28250;52.320;0.360;2023-08-08T10:47:22;1.75;;;1.10;;
42616;SDS011;28250;52.320;0.360;2023-08-08T10:50:05;2.63;;;1.00;;
42616;SDS011;28250;52.320;0.360;2023-08-08T10:55:23;1.60;;;0.93;;
42616;SDS011;28250;52.320;0.360;2023-08-08T10:58:03;3.70;;;0.95;;
42616;SDS011;28250;52.320;0.360;2023-08-08T11:00:33;1.92;;;0.93;;
42616;SDS011;28250;52.320;0.360;2023-08-08T11:03:02;4.90;;;0.90;;
42616;SDS011;28250;52.320;0.360;2023-08-08T11:05:32;1.13;;;0.88;;
42616;SDS011;28250;52.320;0.360;2023-08-08T11:08:01;1.40;;;0.80;;
42616;SDS011;28250;52.320;0.360;2023-08-08T11:10:30;1.77;;;0.90;;
42616;SDS011;28250;52.320;0.360;2023-08-08T11:15:33;0.60;;;0.60;;
42616;SDS011;28250;52.320;0.360;2023-08-08T11:18:01;0.98;;;0.70;;
42616;SDS011;28250;52.320;0.360;2023-08-08T11:20:29;3.30;;;1.08;;
42616;SDS011;28250;52.320;0.360;2023-08-08T11:22:57;1.73;;;0.75;;
42616;SDS011;28250;52.320;0.360;2023-08-08T11:25:27;0.97;;;0.60;;
42616;SDS011;28250;52.320;0.360;2023-08-08T11:27:55;1.38;;;1.00;;
42616;SDS011;28250;52.320;0.360;2023-08-08T11:30:23;1.55;;;0.70;;
42616;SDS011;28250;52.320;0.360;2023-08-08T11:32:53;2.35;;;0.80;;
42616;SDS011;28250;52.320;0.360;2023-08-08T11:35:21;1.67;;;0.70;;
42616;SDS011;28250;52.320;0.360;2023-08-08T11:37:52;1.00;;;0.85;;
42616;SDS011;28250;52.320;0.360;2023-08-08T11:40:20;1.17;;;0.80;;
42616;SDS011;28250;52.320;0.360;2023-08-08T11:42:50;1.83;;;0.93;;
42616;SDS011;28250;52.320;0.360;2023-08-08T11:45:17;2.17;;;1.08;;
42616;SDS011;28250;52.320;0.360;2023-08-08T11:47:43;0.50;;;0.50;;
42616;SDS011;28250;52.320;0.360;2023-08-08T11:50:18;0.90;;;0.63;;
42616;SDS011;28250;52.320;0.360;2023-08-08T11:52:48;2.38;;;0.52;;
42616;SDS011;28250;52.320;0.360;2023-08-08T11:55:18;1.58;;;0.80;;
42616;SDS011;28250;52.320;0.360;2023-08-08T11:57:49;1.15;;;0.70;;
42616;SDS011;28250;52.320;0.360;2023-08-08T12:00:15;1.45;;;0.60;;
42616;SDS011;28250;52.320;0.360;2023-08-08T12:02:43;0.65;;;0.63;;
42616;SDS011;28250;52.320;0.360;2023-08-08T12:05:13;1.35;;;0.90;;
42616;SDS011;28250;52.320;0.360;2023-08-08T12:07:47;0.60;;;0.50;;
42616;SDS011;28250;52.320;0.360;2023-08-08T12:10:15;0.60;;;0.50;;
42616;SDS011;28250;52.320;0.360;2023-08-08T12:12:51;1.17;;;0.60;;
42616;SDS011;28250;52.320;0.360;2023-08-08T12:15:21;0.63;;;0.50;;
42616;SDS011;28250;52.320;0.360;2023-08-08T12:17:47;1.95;;;0.95;;
42616;SDS011;28250;52.320;0.360;2023-08-08T12:20:14;1.63;;;0.60;;
42616;SDS011;28250;52.320;0.360;2023-08-08T12:22:40;0.85;;;0.60;;
42616;SDS011;28250;52.320;0.360;2023-08-08T12:25:07;2.15;;;0.80;;
42616;SDS011;28250;52.320;0.360;2023-08-08T12:27:33;2.00;;;0.73;;
42616;SDS011;28250;52.320;0.360;2023-08-08T12:29:59;1.40;;;0.88;;
42616;SDS011;28250;52.320;0.360;2023-08-08T12:32:26;1.80;;;0.73;;
42616;SDS011;28250;52.320;0.360;2023-08-08T12:34:54;3.70;;;0.80;;
42616;SDS011;28250;52.320;0.360;2023-08-08T12:39:48;1.33;;;0.63;;
42616;SDS011;28250;52.320;0.360;2023-08-08T12:42:15;1.65;;;0.77;;
42616;SDS011;28250;52.320;0.360;2023-08-08T12:44:42;1.83;;;0.80;;
42616;SDS011;28250;52.320;0.360;2023-08-08T12:47:09;3.90;;;0.60;;
42616;SDS011;28250;52.320;0.360;2023-08-08T12:49:35;1.10;;;0.93;;
42616;SDS011;28250;52.320;0.360;2023-08-08T12:52:02;1.75;;;0.60;;
42616;SDS011;28250;52.320;0.360;2023-08-08T12:54:28;1.88;;;1.20;;
42616;SDS011;28250;52.320;0.360;2023-08-08T12:56:54;1.10;;;0.70;;
42616;SDS011;28250;52.320;0.360;2023-08-08T12:59:20;1.20;;;0.82;;
42616;SDS011;28250;52.320;0.360;2023-08-08T13:01:46;1.88;;;0.90;;
42616;SDS011;28250;52.320;0.360;2023-08-08T13:04:12;2.50;;;0.93;;
42616;SDS011;28250;52.320;0.360;2023-08-08T13:09:05;2.07;;;0.77;;
42616;SDS011;28250;52.320;0.360;2023-08-08T13:11:31;0.75;;;0.60;;
42616;SDS011;28250;52.320;0.360;2023-08-08T13:13:57;1.80;;;0.88;;
42616;SDS011;28250;52.320;0.360;2023-08-08T13:16:23;1.40;;;0.88;;
42616;SDS011;28250;52.320;0.360;2023-08-08T13:18:49;4.63;;;0.90;;
42616;SDS011;28250;52.320;0.360;2023-08-08T13:21:16;2.40;;;0.90;;
42616;SDS011;28250;52.320;0.360;2023-08-08T13:23:42;1.33;;;0.70;;
42616;SDS011;28250;52.320;0.360;2023-08-08T13:26:08;4.10;;;1.05;;
42616;SDS011;28250;52.320;0.360;2023-08-08T13:28:34;1.55;;;1.05;;
42616;SDS011;28250;52.320;0.360;2023-08-08T13:31:00;1.98;;;0.80;;
42616;SDS011;28250;52.320;0.360;2023-08-08T13:33:26;2.28;;;0.70;;
42616;SDS011;28250;52.320;0.360;2023-08-08T13:35:52;1.80;;;0.82;;
42616;SDS011;28250;52.320;0.360;2023-08-08T13:38:18;2.30;;;0.98;;
42616;SDS011;28250;52.320;0.360;2023-08-08T13:40:44;1.38;;;0.80;;
42616;SDS011;28250;52.320;0.360;2023-08-08T13:43:10;1.17;;;0.80;;
42616;SDS011;28250;52.320;0.360;2023-08-08T13:45:36;1.75;;;0.88;;
42616;SDS011;28250;52.320;0.360;2023-08-08T13:48:02;0.60;;;0.50;;
42616;SDS011;28250;52.320;0.360;2023-08-08T13:50:28;2.10;;;0.83;;
42616;SDS011;28250;52.320;0.360;2023-08-08T13:52:54;1.52;;;0.75;;
42616;SDS011;28250;52.320;0.360;2023-08-08T13:55:21;1.60;;;0.63;;
42616;SDS011;28250;52.320;0.360;2023-08-08T13:57:47;1.73;;;0.80;;
42616;SDS011;28250;52.320;0.360;2023-08-08T14:00:13;1.00;;;0.88;;
42616;SDS011;28250;52.320;0.360;2023-08-08T14:02:40;1.52;;;0.93;;
42616;SDS011;28250;52.320;0.360;2023-08-08T14:05:06;2.43;;;0.90;;
42616;SDS011;28250;52.320;0.360;2023-08-08T14:07:33;6.22;;;3.47;;
42616;SDS011;28250;52.320;0.360;2023-08-08T14:10:00;11.57;;;6.05;;
42616;SDS011;28250;52.320;0.360;2023-08-08T14:12:29;9.52;;;5.18;;
42616;SDS011;28250;52.320;0.360;2023-08-08T14:14:55;4.25;;;2.58;;
42616;SDS011;28250;52.320;0.360;2023-08-08T14:17:21;7.82;;;6.50;;
42616;SDS011;28250;52.320;0.360;2023-08-08T14:19:48;3.38;;;2.30;;
42616;SDS011;28250;52.320;0.360;2023-08-08T14:22:14;3.58;;;1.38;;
42616;SDS011;28250;52.320;0.360;2023-08-08T14:24:41;1.65;;;1.30;;
42616;SDS011;28250;52.320;0.360;2023-08-08T14:27:08;3.10;;;1.95;;
42616;SDS011;28250;52.320;0.360;2023-08-08T14:29:34;3.85;;;1.45;;
42616;SDS011;28250;52.320;0.360;2023-08-08T14:32:00;3.38;;;1.00;;
42616;SDS011;28250;52.320;0.360;2023-08-08T14:34:30;2.20;;;1.30;;
42616;SDS011;28250;52.320;0.360;2023-08-08T14:37:00;3.13;;;1.05;;
42616;SDS011;28250;52.320;0.360;2023-08-08T14:39:27;3.03;;;0.80;;
42616;SDS011;28250;52.320;0.360;2023-08-08T14:41:53;1.90;;;0.82;;
42616;SDS011;28250;52.320;0.360;2023-08-08T14:44:20;2.92;;;1.23;;
42616;SDS011;28250;52.320;0.360;2023-08-08T14:46:47;2.33;;;1.27;;
42616;SDS011;28250;52.320;0.360;2023-08-08T14:49:13;1.58;;;1.08;;
42616;SDS011;28250;52.320;0.360;2023-08-08T14:51:39;2.75;;;1.00;;
42616;SDS011;28250;52.320;0.360;2023-08-08T14:54:05;3.55;;;1.27;;
42616;SDS011;28250;52.320;0.360;2023-08-08T14:56:31;3.33;;;1.63;;
42616;SDS011;28250;52.320;0.360;2023-08-08T14:58:57;2.40;;;1.40;;
42616;SDS011;28250;52.320;0.360;2023-08-08T15:01:23;1.70;;;1.30;;
42616;SDS011;28250;52.320;0.360;2023-08-08T15:03:50;1.48;;;1.20;;
42616;SDS011;28250;52.320;0.360;2023-08-08T15:06:16;1.73;;;1.10;;
42616;SDS011;28250;52.320;0.360;2023-08-08T15:08:42;3.20;;;1.02;;
42616;SDS011;28250;52.320;0.360;2023-08-08T15:11:08;3.50;;;1.00;;
42616;SDS011;28250;52.320;0.360;2023-08-08T15:13:34;2.00;;;0.70;;
42616;SDS011;28250;52.320;0.360;2023-08-08T15:16:00;1.40;;;0.85;;
42616;SDS011;28250;52.320;0.360;2023-08-08T15:18:26;2.33;;;0.77;;